Time;durP1;ratioP1;P1;durP2;ratioP2;P2;SDS_P1;SDS_P2;PMS_P1;PMS_P2;Temp;Humidity;BMP_temperature;BMP_pressure;BME280_temperature;BME280_humidity;BME280_pressure;Samples;Min_cycle;Max_cycle;Signal;HPM_P1;HPM_P2
2023/08/25 00:00:12;;;;;;;9.25;3.10;;;19.70;99.90;;;;;;4905079;29;20045;-83
2023/08/25 00:02:38;;;;;;;10.25;3.13;;;19.80;99.90;;;;;;4904541;29;20719;-82
2023/08/25 00:05:04;;;;;;;9.52;3.40;;;19.80;99.90;;;;;;4903864;29;20028;-84
2023/08/25 00:07:29;;;;;;;10.25;3.95;;;19.80;99.90;;;;;;4902808;29;20044;-84
2023/08/25 00:09:55;;;;;;;8.23;3.15;;;19.80;99.90;;;;;;4904722;29;20024;-83
2023/08/25 00:12:21;;;;;;;12.80;2.88;;;19.80;99.90;;;;;;4904952;29;20551;-84
2023/08/25 00:14:46;;;;;;;12.63;3.58;;;19.80;99.90;;;;;;4905569;29;20063;-84
2023/08/25 00:17:12;;;;;;;6.13;3.08;;;19.80;99.90;;;;;;4908105;29;20028;-83
2023/08/25 00:19:37;;;;;;;8.55;3.35;;;19.80;99.90;;;;;;4907511;29;20039;-82
2023/08/25 00:22:03;;;;;;;5.93;2.95;;;19.80;99.90;;;;;;4906556;29;20135;-83
2023/08/25 00:24:32;;;;;;;12.20;3.28;;;19.80;99.90;;;;;;4903491;29;20075;-83
2023/08/25 00:26:58;;;;;;;7.97;2.80;;;19.80;99.90;;;;;;4903303;29;20101;-83
2023/08/25 00:29:24;;;;;;;8.25;2.70;;;19.80;99.90;;;;;;4904315;29;20044;-82
2023/08/25 00:31:49;;;;;;;8.18;2.70;;;19.80;99.90;;;;;;4903749;29;20032;-82
2023/08/25 00:34:15;;;;;;;7.85;2.70;;;19.80;99.90;;;;;;4903558;29;20033;-83
2023/08/25 00:36:40;;;;;;;10.18;3.35;;;19.80;99.90;;;;;;4903625;29;20029;-83
2023/08/25 00:39:06;;;;;;;12.35;3.10;;;19.80;99.90;;;;;;4904762;29;20048;-83
2023/08/25 00:41:31;;;;;;;5.15;2.63;;;19.80;99.90;;;;;;4903264;29;20408;-84
2023/08/25 00:43:57;;;;;;;6.65;2.75;;;19.70;99.90;;;;;;4904248;29;20044;-82
2023/08/25 00:46:23;;;;;;;9.45;2.72;;;19.80;99.90;;;;;;4905128;29;20040;-82
2023/08/25 00:48:49;;;;;;;7.78;3.17;;;19.80;99.90;;;;;;4903674;29;20036;-82
2023/08/25 00:51:15;;;;;;;6.93;2.53;;;19.80;99.90;;;;;;4902387;29;20065;-81
2023/08/25 00:53:43;;;;;;;8.82;2.88;;;19.80;99.90;;;;;;4902934;29;20036;-82
2023/08/25 00:56:12;;;;;;;8.73;2.75;;;19.80;99.90;;;;;;4903005;29;20047;-82
2023/08/25 00:58:37;;;;;;;9.20;2.75;;;19.80;99.90;;;;;;4902481;29;20119;-82
2023/08/25 01:01:04;;;;;;;8.27;2.60;;;19.80;99.90;;;;;;4902557;29;20404;-82
2023/08/25 01:03:30;;;;;;;7.65;2.60;;;19.80;99.90;;;;;;4904626;29;20040;-82
2023/08/25 01:05:55;;;;;;;8.65;2.90;;;19.80;99.90;;;;;;4903406;29;20050;-82
2023/08/25 01:08:22;;;;;;;8.93;3.25;;;19.90;99.90;;;;;;4900504;29;20159;-82
2023/08/25 01:10:54;;;;;;;8.10;2.55;;;19.90;99.90;;;;;;4903717;29;20030;-82
2023/08/25 01:13:35;;;;;;;9.95;2.78;;;19.90;99.90;;;;;;4900156;29;20028;-81
2023/08/25 01:16:02;;;;;;;5.93;2.80;;;19.90;99.90;;;;;;4900110;29;20040;-81
2023/08/25 01:18:33;;;;;;;8.90;2.67;;;20.00;99.90;;;;;;4900545;29;20033;-81
2023/08/25 01:20:59;;;;;;;12.77;3.00;;;20.00;99.90;;;;;;4901560;29;20061;-81
2023/08/25 01:23:31;;;;;;;9.18;2.70;;;20.00;99.90;;;;;;4902633;29;20024;-82
2023/08/25 01:25:58;;;;;;;8.45;2.67;;;20.00;99.90;;;;;;4899539;29;20119;-81
2023/08/25 01:28:25;;;;;;;8.52;2.30;;;20.00;99.90;;;;;;4898857;29;20041;-82
2023/08/25 01:30:54;;;;;;;8.90;3.05;;;20.10;99.90;;;;;;4899155;29;20101;-81
2023/08/25 01:33:21;;;;;;;8.48;2.67;;;20.10;99.90;;;;;;4900851;29;20032;-82
2023/08/25 01:35:54;;;;;;;8.70;2.63;;;20.10;99.90;;;;;;4898894;29;20492;-81
2023/08/25 01:38:40;;;;;;;9.25;2.65;;;20.20;99.90;;;;;;4899615;29;21060;-81
2023/08/25 01:41:14;;;;;;;9.05;2.50;;;20.20;99.90;;;;;;4901318;29;20229;-81
2023/08/25 01:43:44;;;;;;;3.58;2.42;;;20.20;99.90;;;;;;4898280;29;20037;-81
2023/08/25 01:46:12;;;;;;;7.53;2.70;;;20.20;99.90;;;;;;4898368;29;20131;-81
2023/08/25 01:48:39;;;;;;;4.53;2.28;;;20.30;99.90;;;;;;4897706;29;20064;-81
2023/08/25 01:51:05;;;;;;;8.20;2.83;;;20.30;99.90;;;;;;4900063;29;20032;-81
2023/08/25 01:53:32;;;;;;;9.77;3.05;;;20.30;99.90;;;;;;4902295;29;20041;-81
2023/08/25 01:55:57;;;;;;;6.57;2.50;;;20.30;99.90;;;;;;4897834;29;20132;-81
2023/08/25 01:58:23;;;;;;;7.57;2.92;;;20.30;99.90;;;;;;4899250;29;20024;-81
2023/08/25 02:00:48;;;;;;;7.78;2.20;;;20.30;99.90;;;;;;4899520;29;20162;-81
2023/08/25 02:03:14;;;;;;;9.77;2.40;;;20.30;99.90;;;;;;4898635;29;20047;-81
2023/08/25 02:05:40;;;;;;;7.25;2.50;;;20.30;99.90;;;;;;4900579;29;20028;-81
2023/08/25 02:08:07;;;;;;;8.75;2.55;;;20.30;99.90;;;;;;4897575;29;20036;-81
2023/08/25 02:10:32;;;;;;;8.82;2.45;;;20.30;99.90;;;;;;4897363;29;20066;-81
2023/08/25 02:12:58;;;;;;;5.75;2.05;;;20.30;99.90;;;;;;4897695;29;20151;-81
2023/08/25 02:15:23;;;;;;;5.30;2.38;;;20.30;99.90;;;;;;4901883;29;20035;-81
2023/08/25 02:17:49;;;;;;;8.02;2.22;;;20.40;99.90;;;;;;4898163;29;20024;-81
2023/08/25 02:20:14;;;;;;;4.68;2.08;;;20.40;99.90;;;;;;4899810;29;21024;-81
2023/08/25 02:22:40;;;;;;;7.60;2.47;;;20.40;99.90;;;;;;4902769;29;20035;-81
2023/08/25 02:25:06;;;;;;;7.63;2.88;;;20.40;99.90;;;;;;4900801;29;20032;-81
2023/08/25 02:27:31;;;;;;;4.50;1.98;;;20.40;99.90;;;;;;4898939;29;21486;-81
2023/08/25 02:29:57;;;;;;;7.05;2.30;;;20.50;99.90;;;;;;4898728;29;20496;-81
2023/08/25 02:32:22;;;;;;;5.50;2.08;;;20.40;99.90;;;;;;4899598;29;20028;-81
2023/08/25 02:34:48;;;;;;;7.50;1.98;;;20.40;99.90;;;;;;4898723;29;20035;-81
2023/08/25 02:37:13;;;;;;;4.30;1.98;;;20.40;99.90;;;;;;4899180;29;20035;-81
2023/08/25 02:39:39;;;;;;;4.03;2.33;;;20.40;99.90;;;;;;4899469;29;20395;-81
2023/08/25 02:42:04;;;;;;;5.28;2.00;;;20.30;99.90;;;;;;4897686;29;20047;-81
2023/08/25 02:44:30;;;;;;;3.63;1.77;;;20.30;99.90;;;;;;4897891;29;20044;-81
2023/08/25 02:46:55;;;;;;;4.72;2.35;;;20.30;99.90;;;;;;4899637;29;20081;-81
2023/08/25 02:49:21;;;;;;;4.43;1.92;;;20.30;99.90;;;;;;4898776;29;20083;-81
2023/08/25 02:51:47;;;;;;;4.72;2.00;;;20.30;99.90;;;;;;4897619;29;20373;-81
2023/08/25 02:54:12;;;;;;;4.65;2.70;;;20.30;99.90;;;;;;4900566;29;20721;-82
2023/08/25 02:56:38;;;;;;;3.20;2.00;;;20.30;99.90;;;;;;4900866;29;20066;-82
2023/08/25 02:59:03;;;;;;;3.83;1.95;;;20.30;99.90;;;;;;4899290;29;20039;-81
2023/08/25 03:01:29;;;;;;;4.03;1.83;;;20.30;99.90;;;;;;4901486;29;20039;-81
2023/08/25 03:03:55;;;;;;;5.72;2.13;;;20.30;99.90;;;;;;4901648;29;20024;-81
2023/08/25 03:06:21;;;;;;;3.03;1.90;;;20.40;99.90;;;;;;4904447;29;20032;-81
2023/08/25 03:08:46;;;;;;;4.45;1.75;;;20.30;99.90;;;;;;4905450;29;20051;-81
2023/08/25 03:11:12;;;;;;;4.93;1.90;;;20.30;99.90;;;;;;4904094;29;20064;-81
2023/08/25 03:13:38;;;;;;;5.45;1.80;;;20.30;99.90;;;;;;4904945;29;20046;-81
2023/08/25 03:16:03;;;;;;;4.72;1.80;;;20.40;99.90;;;;;;4905174;29;20047;-81
2023/08/25 03:18:29;;;;;;;3.28;1.80;;;20.40;99.90;;;;;;4903507;29;20032;-81
2023/08/25 03:20:55;;;;;;;2.53;1.55;;;20.40;99.90;;;;;;4900419;29;20020;-81
2023/08/25 03:23:21;;;;;;;4.90;1.80;;;20.40;99.90;;;;;;4903191;29;20052;-81
2023/08/25 03:25:47;;;;;;;4.35;1.70;;;20.40;99.90;;;;;;4904613;29;20036;-81
2023/08/25 03:28:12;;;;;;;5.40;2.08;;;20.50;99.90;;;;;;4902459;29;20024;-81
2023/08/25 03:30:38;;;;;;;3.47;1.85;;;20.50;99.90;;;;;;4902373;29;21027;-81
2023/08/25 03:33:04;;;;;;;6.70;1.85;;;20.50;99.90;;;;;;4906099;29;20039;-81
2023/08/25 03:35:36;;;;;;;3.45;1.60;;;20.60;99.90;;;;;;4902669;29;20048;-81
2023/08/25 03:38:02;;;;;;;4.00;1.55;;;20.70;99.90;;;;;;4903758;29;20039;-82
2023/08/25 03:40:28;;;;;;;4.47;1.70;;;20.70;99.90;;;;;;4902202;29;20040;-81
2023/08/25 03:42:54;;;;;;;4.88;1.65;;;20.80;99.90;;;;;;4907454;29;20039;-82
2023/08/25 03:45:20;;;;;;;6.10;1.90;;;20.80;99.90;;;;;;4907418;29;20042;-81
2023/08/25 03:47:45;;;;;;;4.43;1.77;;;20.90;99.90;;;;;;4904076;29;20032;-81
2023/08/25 03:50:11;;;;;;;6.43;1.90;;;20.90;99.90;;;;;;4903627;29;20035;-81
2023/08/25 03:52:37;;;;;;;3.95;1.60;;;20.90;99.90;;;;;;4903353;29;20104;-81
2023/08/25 03:55:03;;;;;;;3.47;1.70;;;20.90;99.90;;;;;;4905756;29;20043;-81
2023/08/25 03:57:29;;;;;;;3.80;1.75;;;20.90;99.90;;;;;;4906532;29;20536;-81
2023/08/25 03:59:54;;;;;;;5.72;1.90;;;20.90;99.90;;;;;;4905546;29;20040;-81
2023/08/25 04:02:20;;;;;;;2.75;1.80;;;20.90;99.90;;;;;;4904585;29;20063;-81
2023/08/25 04:04:45;;;;;;;4.75;1.65;;;20.90;99.90;;;;;;4903597;29;20122;-81
2023/08/25 04:07:12;;;;;;;3.75;1.80;;;20.90;99.90;;;;;;4904125;29;20048;-81
2023/08/25 04:09:38;;;;;;;3.58;1.67;;;20.90;99.90;;;;;;4905659;29;20035;-81
2023/08/25 04:12:04;;;;;;;5.20;1.73;;;20.90;99.90;;;;;;4904730;29;20029;-81
2023/08/25 04:14:30;;;;;;;4.43;1.63;;;20.90;99.90;;;;;;4902217;29;20043;-82
2023/08/25 04:16:55;;;;;;;5.32;2.00;;;20.90;99.90;;;;;;4902121;29;20043;-81
2023/08/25 04:19:21;;;;;;;4.07;1.85;;;20.90;99.90;;;;;;4905429;29;20046;-81
2023/08/25 04:21:47;;;;;;;5.22;1.90;;;20.90;99.90;;;;;;4903520;29;20028;-81
2023/08/25 04:24:12;;;;;;;4.93;1.75;;;21.00;99.90;;;;;;4902609;29;20062;-82
2023/08/25 04:26:38;;;;;;;3.00;1.70;;;21.10;99.90;;;;;;4905921;29;20123;-81
2023/08/25 04:29:06;;;;;;;3.10;1.60;;;21.10;99.90;;;;;;4904102;29;20032;-81
2023/08/25 04:31:32;;;;;;;5.50;1.60;;;21.20;99.90;;;;;;4901670;29;20036;-78
2023/08/25 04:33:57;;;;;;;3.92;1.50;;;21.20;99.90;;;;;;4898674;29;20515;-78
2023/08/25 04:36:23;;;;;;;2.95;1.73;;;21.30;99.90;;;;;;4901153;29;20028;-71
2023/08/25 04:38:48;;;;;;;5.75;2.13;;;21.30;99.90;;;;;;4898354;29;20025;-73
2023/08/25 04:41:14;;;;;;;7.05;1.70;;;21.40;99.90;;;;;;4898671;29;20911;-73
2023/08/25 04:43:39;;;;;;;3.38;1.70;;;21.40;99.90;;;;;;4898861;29;20024;-73
2023/08/25 04:46:05;;;;;;;3.97;1.70;;;21.40;99.90;;;;;;4897420;29;20536;-73
2023/08/25 04:48:30;;;;;;;3.63;1.80;;;21.40;99.90;;;;;;4895548;29;21358;-73
2023/08/25 04:50:56;;;;;;;3.92;1.80;;;21.50;99.90;;;;;;4897548;29;20024;-73
2023/08/25 04:53:22;;;;;;;3.42;1.73;;;21.50;99.90;;;;;;4899200;29;20043;-73
2023/08/25 04:55:48;;;;;;;4.07;1.67;;;21.50;99.90;;;;;;4898404;29;20032;-73
2023/08/25 04:58:13;;;;;;;4.10;1.80;;;21.60;99.90;;;;;;4897145;29;20051;-73
2023/08/25 05:00:39;;;;;;;3.80;2.33;;;21.60;99.90;;;;;;4897074;29;20697;-73
2023/08/25 05:03:07;;;;;;;3.58;1.73;;;21.70;99.90;;;;;;4898542;29;20044;-73
2023/08/25 05:05:32;;;;;;;2.63;1.60;;;21.60;99.90;;;;;;4899575;29;20427;-73
2023/08/25 05:07:58;;;;;;;4.70;1.55;;;21.60;99.90;;;;;;4897495;29;20028;-73
2023/08/25 05:10:23;;;;;;;5.20;1.90;;;21.60;99.90;;;;;;4898266;29;20040;-73
2023/08/25 05:12:49;;;;;;;3.22;1.83;;;21.60;99.90;;;;;;4897305;29;20575;-73
2023/08/25 05:15:15;;;;;;;4.50;1.70;;;21.60;99.90;;;;;;4897185;29;20064;-73
2023/08/25 05:17:41;;;;;;;5.03;2.00;;;21.60;99.90;;;;;;4897751;29;20028;-73
2023/08/25 05:20:08;;;;;;;3.85;1.83;;;21.50;99.90;;;;;;4898298;29;20032;-72
2023/08/25 05:22:34;;;;;;;5.28;1.67;;;21.50;99.90;;;;;;4897573;29;20024;-75
2023/08/25 05:25:00;;;;;;;3.67;2.00;;;21.50;99.90;;;;;;4897124;29;20028;-74
2023/08/25 05:27:25;;;;;;;2.72;1.85;;;21.50;99.90;;;;;;4896751;29;20567;-74
2023/08/25 05:29:52;;;;;;;5.03;1.70;;;21.50;99.90;;;;;;4899265;29;20029;-74
2023/08/25 05:32:17;;;;;;;5.35;1.98;;;21.50;99.90;;;;;;4896624;29;20136;-74
2023/08/25 05:34:43;;;;;;;9.07;2.33;;;21.60;99.90;;;;;;4899698;29;20031;-74
2023/08/25 05:37:09;;;;;;;3.90;1.77;;;21.60;99.90;;;;;;4897700;29;20032;-75
2023/08/25 05:39:34;;;;;;;5.63;2.45;;;21.60;99.90;;;;;;4897642;29;20095;-74
2023/08/25 05:42:00;;;;;;;4.63;1.70;;;21.60;99.90;;;;;;4896792;29;20139;-80
2023/08/25 05:44:25;;;;;;;5.80;1.83;;;21.60;99.90;;;;;;4898157;29;20056;-80
2023/08/25 05:46:51;;;;;;;4.25;2.08;;;21.70;99.90;;;;;;4897344;29;20060;-80
2023/08/25 05:49:17;;;;;;;4.03;1.77;;;21.70;99.90;;;;;;4900068;29;20106;-80
2023/08/25 05:51:42;;;;;;;3.92;1.83;;;21.70;99.90;;;;;;4900103;29;20119;-80
2023/08/25 05:54:10;;;;;;;5.47;2.03;;;21.70;99.90;;;;;;4900587;29;20601;-80
2023/08/25 05:56:35;;;;;;;4.78;2.00;;;21.80;99.90;;;;;;4898503;29;20854;-80
2023/08/25 05:59:01;;;;;;;7.53;2.13;;;21.80;99.90;;;;;;4899857;29;20055;-80
2023/08/25 06:01:26;;;;;;;4.50;1.80;;;21.90;99.90;;;;;;4898433;29;20044;-80
2023/08/25 06:03:52;;;;;;;5.22;1.88;;;21.90;99.90;;;;;;4897522;29;20028;-80
2023/08/25 06:06:17;;;;;;;3.72;2.00;;;21.90;99.90;;;;;;4898267;29;20060;-80
2023/08/25 06:08:43;;;;;;;2.95;1.77;;;22.00;99.90;;;;;;4896410;29;20047;-80
2023/08/25 06:11:08;;;;;;;4.80;2.25;;;22.00;99.90;;;;;;4898140;29;20021;-80
2023/08/25 06:13:34;;;;;;;5.80;1.95;;;22.00;99.90;;;;;;4900195;29;20024;-80
2023/08/25 06:16:00;;;;;;;7.18;2.60;;;22.10;99.90;;;;;;4898817;29;20081;-80
2023/08/25 06:18:25;;;;;;;3.58;1.83;;;22.10;99.90;;;;;;4895938;29;20037;-80
2023/08/25 06:20:51;;;;;;;3.10;2.20;;;22.10;99.90;;;;;;4896876;29;20739;-80
2023/08/25 06:23:16;;;;;;;4.82;2.08;;;22.10;99.90;;;;;;4899228;29;20135;-80
2023/08/25 06:25:43;;;;;;;4.60;1.70;;;22.20;99.90;;;;;;4897963;29;20136;-80
2023/08/25 06:28:09;;;;;;;2.80;1.70;;;22.20;99.90;;;;;;4898084;29;20087;-80
2023/08/25 06:30:35;;;;;;;3.72;1.70;;;22.20;99.90;;;;;;4898628;29;20919;-80
2023/08/25 06:33:01;;;;;;;6.18;2.00;;;22.30;99.90;;;;;;4899592;29;20036;-80
2023/08/25 06:35:27;;;;;;;3.80;1.70;;;22.30;99.90;;;;;;4897996;29;20031;-80
2023/08/25 06:37:52;;;;;;;3.28;1.70;;;22.40;99.90;;;;;;4898300;29;20369;-80
2023/08/25 06:40:18;;;;;;;5.13;1.83;;;22.40;99.90;;;;;;4895961;29;20063;-81
2023/08/25 06:42:43;;;;;;;4.85;2.05;;;22.50;99.90;;;;;;4898014;29;20043;-80
2023/08/25 06:45:09;;;;;;;3.15;1.90;;;22.50;99.90;;;;;;4898656;29;20123;-80
2023/08/25 06:47:35;;;;;;;4.57;1.90;;;22.50;99.90;;;;;;4898095;29;20064;-80
2023/08/25 06:50:02;;;;;;;4.90;1.80;;;22.50;99.90;;;;;;4901922;29;20037;-80
2023/08/25 06:52:28;;;;;;;4.43;1.90;;;22.40;99.90;;;;;;4900414;29;21044;-80
2023/08/25 06:54:53;;;;;;;3.95;2.00;;;22.40;99.90;;;;;;4901392;29;20031;-80
2023/08/25 06:57:19;;;;;;;5.68;1.98;;;22.50;99.90;;;;;;4901303;29;20028;-80
2023/08/25 06:59:45;;;;;;;3.67;2.13;;;22.50;99.90;;;;;;4902977;29;20043;-81
2023/08/25 07:02:10;;;;;;;6.30;1.70;;;22.50;99.90;;;;;;4897670;29;20032;-81
2023/08/25 07:04:36;;;;;;;4.10;1.90;;;22.50;99.90;;;;;;4898962;29;20123;-80
2023/08/25 07:07:02;;;;;;;5.05;1.98;;;22.60;99.90;;;;;;4896967;29;20686;-80
2023/08/25 07:09:28;;;;;;;4.30;1.83;;;22.60;99.90;;;;;;4899456;29;20051;-80
2023/08/25 07:11:54;;;;;;;4.28;1.65;;;22.60;99.90;;;;;;4898519;29;20031;-81
2023/08/25 07:14:20;;;;;;;3.45;1.75;;;22.60;99.90;;;;;;4900928;29;20021;-80
2023/08/25 07:16:46;;;;;;;5.72;1.80;;;22.60;99.90;;;;;;4897706;29;20563;-81
2023/08/25 07:19:13;;;;;;;3.75;1.65;;;22.70;99.90;;;;;;4899195;29;20034;-80
2023/08/25 07:21:39;;;;;;;4.32;2.00;;;22.90;99.90;;;;;;4896251;29;20036;-81
2023/08/25 07:24:04;;;;;;;2.50;1.70;;;23.10;99.90;;;;;;4899053;29;20025;-80
2023/08/25 07:26:30;;;;;;;3.38;1.70;;;23.30;99.90;;;;;;4897694;29;20368;-80
2023/08/25 07:28:55;;;;;;;4.00;1.58;;;23.60;99.90;;;;;;4899346;29;20032;-81
2023/08/25 07:31:21;;;;;;;3.42;1.67;;;23.90;99.90;;;;;;4900439;29;20059;-81
2023/08/25 07:33:46;;;;;;;3.75;1.80;;;24.10;99.90;;;;;;4898404;29;20025;-80
2023/08/25 07:36:12;;;;;;;2.88;1.85;;;24.30;99.90;;;;;;4899299;29;20115;-81
2023/08/25 07:38:38;;;;;;;5.68;1.73;;;24.50;99.90;;;;;;4897342;29;20035;-81
2023/08/25 07:41:04;;;;;;;3.08;1.50;;;24.70;99.90;;;;;;4897657;29;20447;-81
2023/08/25 07:43:29;;;;;;;3.58;1.67;;;24.80;99.90;;;;;;4899865;29;20050;-81
2023/08/25 07:45:55;;;;;;;2.67;1.92;;;25.00;99.90;;;;;;4898493;29;20670;-80
2023/08/25 07:48:22;;;;;;;5.82;1.90;;;25.00;99.90;;;;;;4900693;29;20024;-80
2023/08/25 07:50:48;;;;;;;5.28;1.88;;;25.10;99.90;;;;;;4900498;29;20031;-80
2023/08/25 07:53:14;;;;;;;5.18;2.20;;;25.10;99.90;;;;;;4900555;29;20081;-80
2023/08/25 07:55:40;;;;;;;5.20;1.75;;;25.10;99.90;;;;;;4901372;29;20032;-80
2023/08/25 07:58:07;;;;;;;3.85;1.67;;;25.10;99.90;;;;;;4901418;29;20059;-80
2023/08/25 08:00:32;;;;;;;2.85;1.92;;;24.90;99.90;;;;;;4901321;29;20362;-80
2023/08/25 08:02:58;;;;;;;5.65;2.15;;;24.80;99.90;;;;;;4901419;29;20091;-80
2023/08/25 08:05:24;;;;;;;3.83;1.92;;;24.70;99.90;;;;;;4899498;29;20476;-80
2023/08/25 08:07:49;;;;;;;3.55;2.13;;;24.70;99.90;;;;;;4901456;29;20507;-81
2023/08/25 08:10:16;;;;;;;4.38;2.20;;;24.60;99.90;;;;;;4900812;29;20028;-80
2023/08/25 08:12:42;;;;;;;5.80;2.15;;;24.50;99.90;;;;;;4900470;29;20051;-80
2023/08/25 08:15:09;;;;;;;3.92;2.00;;;24.40;99.90;;;;;;4898951;29;20210;-81
2023/08/25 08:17:35;;;;;;;4.55;2.05;;;24.40;99.90;;;;;;4901432;29;20488;-81
2023/08/25 08:20:00;;;;;;;2.78;2.00;;;24.30;99.90;;;;;;4898821;29;20036;-81
2023/08/25 08:22:27;;;;;;;4.10;2.30;;;24.20;99.90;;;;;;4899383;29;20043;-81
2023/08/25 08:24:53;;;;;;;2.88;1.70;;;24.10;99.90;;;;;;4899571;29;20100;-81
2023/08/25 08:27:19;;;;;;;3.47;2.17;;;24.10;99.90;;;;;;4899396;29;20036;-81
2023/08/25 08:29:46;;;;;;;3.42;1.98;;;24.00;99.90;;;;;;4899540;29;20029;-80
2023/08/25 08:32:16;;;;;;;15.35;2.60;;;23.90;99.90;;;;;;4899976;29;20496;-81
2023/08/25 08:34:42;;;;;;;3.13;1.90;;;23.80;99.90;;;;;;4900204;29;20047;-81
2023/08/25 08:37:07;;;;;;;4.53;2.33;;;23.70;99.90;;;;;;4899666;29;21008;-82
2023/08/25 08:39:33;;;;;;;5.97;2.17;;;23.70;99.90;;;;;;4900599;29;20118;-81
2023/08/25 08:42:03;;;;;;;4.85;2.28;;;23.60;99.90;;;;;;4899356;29;20060;-82
2023/08/25 08:44:35;;;;;;;5.65;2.47;;;23.60;99.90;;;;;;4899214;29;20055;-80
2023/08/25 08:47:01;;;;;;;5.13;2.50;;;23.60;99.90;;;;;;4901834;29;20072;-81
2023/08/25 08:49:27;;;;;;;5.50;2.28;;;23.60;99.90;;;;;;4900129;29;20039;-81
2023/08/25 08:51:56;;;;;;;4.28;2.45;;;23.60;99.90;;;;;;4901651;29;20028;-81
2023/08/25 08:54:24;;;;;;;3.65;2.30;;;23.60;99.90;;;;;;4900540;29;20033;-80
2023/08/25 08:56:51;;;;;;;5.85;2.67;;;23.50;99.90;;;;;;4900566;29;20072;-81
2023/08/25 08:59:17;;;;;;;4.85;2.42;;;23.50;99.90;;;;;;4904020;29;20069;-81
2023/08/25 09:01:43;;;;;;;10.20;2.60;;;23.60;99.90;;;;;;4903671;29;20036;-82
2023/08/25 09:04:09;;;;;;;5.32;2.97;;;23.70;99.90;;;;;;4902144;29;20571;-81
2023/08/25 09:06:37;;;;;;;7.43;2.70;;;23.80;99.90;;;;;;4901926;29;20108;-82
2023/08/25 09:09:05;;;;;;;5.25;2.17;;;23.80;99.90;;;;;;4904076;29;20028;-81
2023/08/25 09:11:34;;;;;;;7.25;2.70;;;23.90;99.90;;;;;;4898013;29;20028;-80
2023/08/25 09:14:04;;;;;;;7.95;3.10;;;23.90;99.90;;;;;;4906642;29;20064;-81
2023/08/25 09:16:33;;;;;;;4.88;2.75;;;23.80;99.90;;;;;;4900115;29;20055;-81
2023/08/25 09:19:00;;;;;;;6.97;3.00;;;23.80;99.90;;;;;;4897209;29;20495;-81
2023/08/25 09:21:26;;;;;;;8.07;3.13;;;23.80;99.90;;;;;;4902204;29;20195;-81
2023/08/25 09:24:00;;;;;;;8.73;2.95;;;23.80;99.90;;;;;;4900421;29;20029;-82
2023/08/25 09:26:28;;;;;;;10.73;3.00;;;23.90;99.90;;;;;;4897770;29;20043;-81
2023/08/25 09:28:54;;;;;;;6.80;2.88;;;23.90;99.90;;;;;;4898388;29;20028;-81
2023/08/25 09:31:23;;;;;;;4.97;2.80;;;24.20;99.90;;;;;;4901228;29;20053;-80
2023/08/25 09:33:59;;;;;;;8.23;2.92;;;24.50;99.90;;;;;;4900003;29;20040;-81
2023/08/25 09:36:25;;;;;;;7.18;3.47;;;24.80;99.90;;;;;;4897675;29;20175;-82
2023/08/25 09:38:52;;;;;;;5.63;2.67;;;25.00;99.90;;;;;;4899658;29;20028;-81
2023/08/25 09:41:24;;;;;;;6.13;2.72;;;25.10;99.90;;;;;;4899636;29;20028;-81
2023/08/25 09:43:58;;;;;;;4.60;2.75;;;25.20;99.90;;;;;;4900455;29;20087;-82
2023/08/25 09:46:33;;;;;;;7.93;2.88;;;25.40;99.90;;;;;;4898503;29;20025;-82
2023/08/25 09:49:07;;;;;;;7.28;3.00;;;25.50;99.90;;;;;;4899329;29;20035;-81
2023/08/25 09:51:53;;;;;;;9.65;3.70;;;25.50;99.90;;;;;;4899648;29;20504;-80
2023/08/25 09:54:19;;;;;;;4.43;2.72;;;25.60;99.90;;;;;;4898961;29;20032;-81
2023/08/25 09:56:48;;;;;;;7.72;3.38;;;25.50;99.90;;;;;;4899041;29;20028;-81
2023/08/25 09:59:15;;;;;;;7.97;2.83;;;25.60;99.90;;;;;;4899245;29;20043;-82
2023/08/25 10:01:45;;;;;;;9.43;3.03;;;25.50;99.90;;;;;;4897742;29;20045;-81
2023/08/25 10:04:12;;;;;;;4.97;2.72;;;25.40;99.90;;;;;;4896950;29;20036;-81
2023/08/25 10:06:39;;;;;;;7.35;3.25;;;25.40;99.90;;;;;;4897030;29;20040;-81
2023/08/25 10:09:06;;;;;;;4.82;2.80;;;25.50;99.90;;;;;;4897589;29;20088;-81
2023/08/25 10:11:45;;;;;;;5.68;2.60;;;25.60;99.90;;;;;;4900611;29;20036;-83
2023/08/25 10:14:12;;;;;;;4.75;2.38;;;25.90;99.90;;;;;;4898624;29;20036;-82
2023/08/25 10:16:39;;;;;;;5.50;2.42;;;26.30;99.90;;;;;;4898900;29;20035;-81
2023/08/25 10:19:05;;;;;;;3.28;2.25;;;26.80;99.90;;;;;;4898422;29;20032;-81
2023/08/25 10:21:33;;;;;;;5.15;2.55;;;27.10;99.90;;;;;;4898512;29;20043;-81
2023/08/25 10:24:00;;;;;;;5.45;2.30;;;27.20;99.90;;;;;;4900658;29;20031;-82
2023/08/25 10:26:26;;;;;;;3.83;2.40;;;27.50;99.90;;;;;;4898919;29;20032;-82
2023/08/25 10:28:52;;;;;;;4.55;2.40;;;27.70;99.90;;;;;;4898737;29;20134;-81
2023/08/25 10:31:19;;;;;;;4.30;2.50;;;27.60;99.90;;;;;;4897402;29;20028;-81
2023/08/25 10:33:49;;;;;;;4.15;2.15;;;27.60;99.90;;;;;;4898837;29;21551;-82
2023/08/25 10:36:20;;;;;;;5.53;2.22;;;27.50;99.90;;;;;;4898299;29;20036;-81
2023/08/25 10:38:54;;;;;;;4.95;2.30;;;27.40;99.90;;;;;;4899024;29;20106;-81
2023/08/25 10:41:20;;;;;;;;;;;27.40;99.90;;;;;;4898702;29;20036;-81
2023/08/25 10:43:55;;;;;;;4.15;2.22;;;27.20;99.90;;;;;;4901188;29;19935;-81
2023/08/25 10:46:23;;;;;;;4.20;2.40;;;27.10;99.90;;;;;;4900086;29;20032;-81
2023/08/25 10:49:08;;;;;;;4.55;2.28;;;27.20;99.90;;;;;;4899524;29;20027;-81
2023/08/25 10:51:33;;;;;;;3.47;2.05;;;27.50;99.90;;;;;;4898236;29;20025;-81
2023/08/25 10:53:59;;;;;;;4.40;2.05;;;27.70;99.90;;;;;;4898882;29;20039;-81
2023/08/25 10:56:26;;;;;;;5.07;2.10;;;27.90;99.90;;;;;;4900499;29;20024;-81
2023/08/25 10:59:11;;;;;;;3.60;2.28;;;28.10;99.90;;;;;;4901064;29;20032;-82
2023/08/25 11:01:37;;;;;;;3.63;2.03;;;28.30;99.90;;;;;;4901161;29;20105;-81
2023/08/25 11:04:13;;;;;;;4.88;2.65;;;28.40;99.90;;;;;;4903411;29;20025;-81
2023/08/25 11:06:46;;;;;;;4.68;2.60;;;28.60;99.90;;;;;;4900669;29;20060;-81
2023/08/25 11:09:17;;;;;;;5.20;2.23;;;28.80;99.90;;;;;;4903087;29;20092;-81
2023/08/25 11:11:44;;;;;;;4.78;2.50;;;29.00;99.90;;;;;;4900779;29;20032;-82
2023/08/25 11:14:11;;;;;;;5.93;2.20;;;29.00;99.90;;;;;;4903538;29;20036;-82
2023/08/25 11:16:40;;;;;;;5.00;2.15;;;29.10;99.90;;;;;;4901739;29;20036;-81
2023/08/25 11:19:13;;;;;;;3.58;2.33;;;29.10;99.90;;;;;;4902492;29;20754;-82
2023/08/25 11:21:39;;;;;;;4.20;2.22;;;29.40;99.90;;;;;;4904420;29;20124;-82
2023/08/25 11:24:05;;;;;;;4.45;2.55;;;29.50;99.90;;;;;;4906080;29;20031;-81
2023/08/25 11:26:34;;;;;;;4.38;2.33;;;29.60;99.90;;;;;;4904889;29;20692;-81
2023/08/25 11:29:01;;;;;;;6.63;2.10;;;29.60;99.90;;;;;;4905314;29;20103;-82
2023/08/25 11:31:26;;;;;;;6.15;2.17;;;29.70;99.90;;;;;;4899861;29;20070;-82
2023/08/25 11:33:54;;;;;;;4.18;2.22;;;29.70;99.90;;;;;;4900781;29;20063;-82
2023/08/25 11:36:23;;;;;;;4.47;2.30;;;30.00;99.90;;;;;;4901261;29;20020;-82
2023/08/25 11:38:50;;;;;;;4.65;2.17;;;30.20;99.90;;;;;;4903535;29;20491;-83
2023/08/25 11:41:16;;;;;;;4.00;1.98;;;30.20;99.90;;;;;;4899642;29;20500;-81
2023/08/25 11:43:44;;;;;;;3.42;2.30;;;30.40;99.90;;;;;;4900025;29;20433;-82
2023/08/25 11:46:10;;;;;;;2.70;1.95;;;30.80;99.90;;;;;;4899519;29;20072;-82
2023/08/25 11:48:37;;;;;;;3.55;1.88;;;30.80;99.90;;;;;;4899447;29;20108;-82
2023/08/25 11:51:02;;;;;;;5.93;2.38;;;30.90;99.90;;;;;;4901886;29;20127;-82
2023/08/25 11:53:29;;;;;;;5.43;2.63;;;30.90;99.90;;;;;;4900373;29;20059;-81
2023/08/25 11:56:05;;;;;;;6.45;2.42;;;31.10;99.90;;;;;;4898414;29;20028;-82
2023/08/25 11:58:32;;;;;;;4.40;2.20;;;31.30;99.90;;;;;;4900340;29;20032;-82
2023/08/25 12:01:10;;;;;;;4.68;2.30;;;31.40;99.90;;;;;;4898378;29;20020;-82
2023/08/25 12:03:37;;;;;;;5.57;2.40;;;31.40;99.90;;;;;;4898192;29;20119;-81
2023/08/25 12:06:05;;;;;;;4.22;2.30;;;31.30;99.90;;;;;;4895891;29;20044;-82
2023/08/25 12:08:31;;;;;;;5.40;2.75;;;31.20;99.90;;;;;;4897655;29;20062;-81
2023/08/25 12:10:56;;;;;;;7.28;2.65;;;31.20;99.90;;;;;;4898332;29;20127;-82
2023/08/25 12:13:32;;;;;;;6.93;2.17;;;31.30;99.90;;;;;;4897655;29;20403;-83
2023/08/25 12:15:58;;;;;;;3.42;2.30;;;31.40;99.90;;;;;;4899442;29;20039;-82
2023/08/25 12:18:48;;;;;;;6.35;2.20;;;31.50;99.90;;;;;;4896764;29;20020;-81
2023/08/25 12:21:14;;;;;;;4.75;2.30;;;31.60;99.90;;;;;;4898389;29;20056;-82
2023/08/25 12:23:40;;;;;;;5.25;2.45;;;31.50;99.90;;;;;;4897106;29;20029;-81
2023/08/25 12:26:09;;;;;;;3.42;2.22;;;31.20;99.90;;;;;;4896817;29;20043;-82
2023/08/25 12:28:34;;;;;;;3.05;2.20;;;31.00;99.90;;;;;;4898611;29;20025;-81
2023/08/25 12:31:01;;;;;;;5.22;2.63;;;31.00;99.90;;;;;;4896100;29;20120;-81
2023/08/25 12:33:27;;;;;;;4.88;2.20;;;30.80;99.90;;;;;;4895679;29;20092;-82
2023/08/25 12:35:53;;;;;;;5.75;2.38;;;30.40;99.90;;;;;;4896725;29;20032;-81
2023/08/25 12:38:19;;;;;;;5.53;2.80;;;30.30;99.90;;;;;;4896409;29;20036;-82
2023/08/25 12:40:45;;;;;;;3.55;2.15;;;30.10;99.90;;;;;;4897263;29;20042;-82
2023/08/25 12:43:11;;;;;;;3.60;2.50;;;29.90;99.90;;;;;;4898868;29;20029;-81